sensor_id;sensor_type;location;lat;lon;timestamp;temperature;humidity
7970;DHT22;4030;52.362;9.206;2023-07-13T00:00:33;22.50;62.50
7970;DHT22;4030;52.362;9.206;2023-07-13T00:02:59;22.40;62.60
7970;DHT22;4030;52.362;9.206;2023-07-13T00:05:25;22.40;62.60
7970;DHT22;4030;52.362;9.206;2023-07-13T00:07:52;22.40;62.80
7970;DHT22;4030;52.362;9.206;2023-07-13T00:10:18;22.30;62.80
7970;DHT22;4030;52.362;9.206;2023-07-13T00:12:44;22.30;62.80
7970;DHT22;4030;52.362;9.206;2023-07-13T00:15:14;22.30;63.00
7970;DHT22;4030;52.362;9.206;2023-07-13T00:17:48;22.30;63.10
7970;DHT22;4030;52.362;9.206;2023-07-13T00:20:15;22.30;63.20
7970;DHT22;4030;52.362;9.206;2023-07-13T00:22:41;22.20;63.20
7970;DHT22;4030;52.362;9.206;2023-07-13T00:25:10;22.20;63.30
7970;DHT22;4030;52.362;9.206;2023-07-13T00:27:36;22.20;63.40
7970;DHT22;4030;52.362;9.206;2023-07-13T00:30:02;22.20;63.60
7970;DHT22;4030;52.362;9.206;2023-07-13T00:32:28;22.10;63.50
7970;DHT22;4030;52.362;9.206;2023-07-13T00:34:55;22.10;63.60
7970;DHT22;4030;52.362;9.206;2023-07-13T00:37:21;22.10;63.60
7970;DHT22;4030;52.362;9.206;2023-07-13T00:39:47;22.10;63.70
7970;DHT22;4030;52.362;9.206;2023-07-13T00:42:13;22.10;63.80
7970;DHT22;4030;52.362;9.206;2023-07-13T00:44:39;22.00;63.70
7970;DHT22;4030;52.362;9.206;2023-07-13T00:47:06;22.00;63.70
7970;DHT22;4030;52.362;9.206;2023-07-13T00:49:33;22.00;63.80
7970;DHT22;4030;52.362;9.206;2023-07-13T00:52:06;22.00;63.90
7970;DHT22;4030;52.362;9.206;2023-07-13T00:54:41;22.00;63.80
7970;DHT22;4030;52.362;9.206;2023-07-13T00:57:12;21.90;63.90
7970;DHT22;4030;52.362;9.206;2023-07-13T00:59:43;22.00;63.90
7970;DHT22;4030;52.362;9.206;2023-07-13T01:02:13;22.00;63.80
7970;DHT22;4030;52.362;9.206;2023-07-13T01:04:38;21.90;63.90
7970;DHT22;4030;52.362;9.206;2023-07-13T01:07:06;21.90;63.90
7970;DHT22;4030;52.362;9.206;2023-07-13T01:09:31;21.90;63.90
7970;DHT22;4030;52.362;9.206;2023-07-13T01:11:57;21.80;63.80
7970;DHT22;4030;52.362;9.206;2023-07-13T01:14:24;21.90;63.90
7970;DHT22;4030;52.362;9.206;2023-07-13T01:16:50;21.80;63.70
7970;DHT22;4030;52.362;9.206;2023-07-13T01:19:36;21.80;63.70
7970;DHT22;4030;52.362;9.206;2023-07-13T01:22:16;21.80;63.90
7970;DHT22;4030;52.362;9.206;2023-07-13T01:24:47;21.80;63.80
7970;DHT22;4030;52.362;9.206;2023-07-13T01:27:15;21.70;63.70
7970;DHT22;4030;52.362;9.206;2023-07-13T01:29:44;21.70;63.90
7970;DHT22;4030;52.362;9.206;2023-07-13T01:32:23;21.70;63.80
7970;DHT22;4030;52.362;9.206;2023-07-13T01:34:51;21.70;63.90
7970;DHT22;4030;52.362;9.206;2023-07-13T01:37:20;21.70;63.90
7970;DHT22;4030;52.362;9.206;2023-07-13T01:39:46;21.60;63.90
7970;DHT22;4030;52.362;9.206;2023-07-13T01:42:12;21.60;64.00
7970;DHT22;4030;52.362;9.206;2023-07-13T01:44:39;21.60;64.00
7970;DHT22;4030;52.362;9.206;2023-07-13T01:47:05;21.60;64.10
7970;DHT22;4030;52.362;9.206;2023-07-13T01:49:31;21.60;64.10
7970;DHT22;4030;52.362;9.206;2023-07-13T01:51:56;21.50;64.00
7970;DHT22;4030;52.362;9.206;2023-07-13T01:54:22;21.60;64.10
7970;DHT22;4030;52.362;9.206;2023-07-13T01:56:48;21.50;64.10
7970;DHT22;4030;52.362;9.206;2023-07-13T01:59:14;21.50;64.20
7970;DHT22;4030;52.362;9.206;2023-07-13T02:01:40;21.50;64.20
7970;DHT22;4030;52.362;9.206;2023-07-13T02:04:05;21.50;64.20
7970;DHT22;4030;52.362;9.206;2023-07-13T02:06:31;21.50;64.20
7970;DHT22;4030;52.362;9.206;2023-07-13T02:08:57;21.40;64.10
7970;DHT22;4030;52.362;9.206;2023-07-13T02:11:23;21.40;64.10
7970;DHT22;4030;52.362;9.206;2023-07-13T02:13:50;21.40;64.10
7970;DHT22;4030;52.362;9.206;2023-07-13T02:16:16;21.40;64.20
7970;DHT22;4030;52.362;9.206;2023-07-13T02:18:42;21.40;64.20
7970;DHT22;4030;52.362;9.206;2023-07-13T02:21:07;21.40;64.20
7970;DHT22;4030;52.362;9.206;2023-07-13T02:23:33;21.30;64.00
7970;DHT22;4030;52.362;9.206;2023-07-13T02:26:00;21.30;64.10
7970;DHT22;4030;52.362;9.206;2023-07-13T02:28:28;21.30;64.10
7970;DHT22;4030;52.362;9.206;2023-07-13T02:30:53;21.30;64.30
7970;DHT22;4030;52.362;9.206;2023-07-13T02:33:19;21.30;64.20
7970;DHT22;4030;52.362;9.206;2023-07-13T02:35:45;21.30;64.40
7970;DHT22;4030;52.362;9.206;2023-07-13T02:38:10;21.20;64.30
7970;DHT22;4030;52.362;9.206;2023-07-13T02:40:36;21.20;64.40
7970;DHT22;4030;52.362;9.206;2023-07-13T02:43:03;21.20;64.40
7970;DHT22;4030;52.362;9.206;2023-07-13T02:45:28;21.20;64.40
7970;DHT22;4030;52.362;9.206;2023-07-13T02:47:54;21.20;64.50
7970;DHT22;4030;52.362;9.206;2023-07-13T02:50:20;21.20;64.50
7970;DHT22;4030;52.362;9.206;2023-07-13T02:52:46;21.20;64.50
7970;DHT22;4030;52.362;9.206;2023-07-13T02:55:11;21.20;64.60
7970;DHT22;4030;52.362;9.206;2023-07-13T02:57:37;21.20;64.60
7970;DHT22;4030;52.362;9.206;2023-07-13T03:00:04;21.20;64.60
7970;DHT22;4030;52.362;9.206;2023-07-13T03:02:31;21.20;64.70
7970;DHT22;4030;52.362;9.206;2023-07-13T03:04:57;21.20;64.80
7970;DHT22;4030;52.362;9.206;2023-07-13T03:07:24;21.20;64.70
7970;DHT22;4030;52.362;9.206;2023-07-13T03:09:57;21.10;64.60
7970;DHT22;4030;52.362;9.206;2023-07-13T03:12:24;21.10;64.60
7970;DHT22;4030;52.362;9.206;2023-07-13T03:14:50;21.10;64.60
7970;DHT22;4030;52.362;9.206;2023-07-13T03:17:16;21.10;64.80
7970;DHT22;4030;52.362;9.206;2023-07-13T03:19:42;21.10;64.90
7970;DHT22;4030;52.362;9.206;2023-07-13T03:22:09;21.20;65.00
7970;DHT22;4030;52.362;9.206;2023-07-13T03:24:34;21.10;65.00
7970;DHT22;4030;52.362;9.206;2023-07-13T03:27:03;21.20;65.10
7970;DHT22;4030;52.362;9.206;2023-07-13T03:29:29;21.10;65.10
7970;DHT22;4030;52.362;9.206;2023-07-13T03:31:55;21.10;65.20
7970;DHT22;4030;52.362;9.206;2023-07-13T03:34:21;21.10;65.30
7970;DHT22;4030;52.362;9.206;2023-07-13T03:36:46;21.10;65.30
7970;DHT22;4030;52.362;9.206;2023-07-13T03:39:12;21.10;65.40
7970;DHT22;4030;52.362;9.206;2023-07-13T03:41:38;21.10;65.50
7970;DHT22;4030;52.362;9.206;2023-07-13T03:44:04;21.10;65.40
7970;DHT22;4030;52.362;9.206;2023-07-13T03:46:30;21.10;65.50
7970;DHT22;4030;52.362;9.206;2023-07-13T03:48:55;21.10;65.50
7970;DHT22;4030;52.362;9.206;2023-07-13T03:51:21;21.10;65.60
7970;DHT22;4030;52.362;9.206;2023-07-13T03:53:47;21.10;65.70
7970;DHT22;4030;52.362;9.206;2023-07-13T03:56:14;21.10;65.60
7970;DHT22;4030;52.362;9.206;2023-07-13T03:58:42;21.00;65.60
7970;DHT22;4030;52.362;9.206;2023-07-13T04:01:10;21.10;65.70
7970;DHT22;4030;52.362;9.206;2023-07-13T04:03:37;21.00;65.70
7970;DHT22;4030;52.362;9.206;2023-07-13T04:06:07;21.00;65.70
7970;DHT22;4030;52.362;9.206;2023-07-13T04:08:35;21.00;65.80
7970;DHT22;4030;52.362;9.206;2023-07-13T04:11:04;21.00;65.90
7970;DHT22;4030;52.362;9.206;2023-07-13T04:13:30;21.00;65.90
7970;DHT22;4030;52.362;9.206;2023-07-13T04:15:56;21.00;65.90
7970;DHT22;4030;52.362;9.206;2023-07-13T04:18:22;21.00;65.90
7970;DHT22;4030;52.362;9.206;2023-07-13T04:20:48;21.00;65.90
7970;DHT22;4030;52.362;9.206;2023-07-13T04:23:15;21.00;65.90
7970;DHT22;4030;52.362;9.206;2023-07-13T04:25:46;21.00;66.00
7970;DHT22;4030;52.362;9.206;2023-07-13T04:28:15;21.00;66.10
7970;DHT22;4030;52.362;9.206;2023-07-13T04:30:41;21.00;66.10
7970;DHT22;4030;52.362;9.206;2023-07-13T04:33:07;21.00;66.10
7970;DHT22;4030;52.362;9.206;2023-07-13T04:35:34;21.00;66.10
7970;DHT22;4030;52.362;9.206;2023-07-13T04:38:00;21.00;66.10
7970;DHT22;4030;52.362;9.206;2023-07-13T04:40:27;21.00;66.20
7970;DHT22;4030;52.362;9.206;2023-07-13T04:42:53;21.00;66.20
7970;DHT22;4030;52.362;9.206;2023-07-13T04:45:19;21.10;66.30
7970;DHT22;4030;52.362;9.206;2023-07-13T04:47:45;21.10;66.40
7970;DHT22;4030;52.362;9.206;2023-07-13T04:50:13;21.10;66.30
7970;DHT22;4030;52.362;9.206;2023-07-13T04:52:43;21.10;66.40
7970;DHT22;4030;52.362;9.206;2023-07-13T04:55:10;21.10;66.40
7970;DHT22;4030;52.362;9.206;2023-07-13T04:57:35;21.20;66.50
7970;DHT22;4030;52.362;9.206;2023-07-13T05:00:02;21.20;66.50
7970;DHT22;4030;52.362;9.206;2023-07-13T05:02:31;21.20;66.50
7970;DHT22;4030;52.362;9.206;2023-07-13T05:04:58;21.20;66.50
7970;DHT22;4030;52.362;9.206;2023-07-13T05:07:24;21.20;66.50
7970;DHT22;4030;52.362;9.206;2023-07-13T05:09:50;21.20;67.30
7970;DHT22;4030;52.362;9.206;2023-07-13T05:12:16;21.30;66.40
7970;DHT22;4030;52.362;9.206;2023-07-13T05:14:42;21.30;66.50
7970;DHT22;4030;52.362;9.206;2023-07-13T05:17:07;21.30;66.40
7970;DHT22;4030;52.362;9.206;2023-07-13T05:19:33;21.30;66.40
7970;DHT22;4030;52.362;9.206;2023-07-13T05:21:59;21.30;66.40
7970;DHT22;4030;52.362;9.206;2023-07-13T05:24:25;21.30;66.50
7970;DHT22;4030;52.362;9.206;2023-07-13T05:26:50;21.30;66.50
7970;DHT22;4030;52.362;9.206;2023-07-13T05:29:16;21.30;66.50
7970;DHT22;4030;52.362;9.206;2023-07-13T05:31:42;21.40;66.40
7970;DHT22;4030;52.362;9.206;2023-07-13T05:34:07;21.40;66.40
7970;DHT22;4030;52.362;9.206;2023-07-13T05:36:33;21.40;66.50
7970;DHT22;4030;52.362;9.206;2023-07-13T05:38:59;21.40;66.40
7970;DHT22;4030;52.362;9.206;2023-07-13T05:41:25;21.40;66.40
7970;DHT22;4030;52.362;9.206;2023-07-13T05:43:50;21.50;66.50
7970;DHT22;4030;52.362;9.206;2023-07-13T05:46:16;21.50;66.40
7970;DHT22;4030;52.362;9.206;2023-07-13T05:48:42;21.50;66.50
7970;DHT22;4030;52.362;9.206;2023-07-13T05:51:08;21.50;66.50
7970;DHT22;4030;52.362;9.206;2023-07-13T05:53:34;21.50;66.50
7970;DHT22;4030;52.362;9.206;2023-07-13T05:56:00;21.60;66.50
7970;DHT22;4030;52.362;9.206;2023-07-13T05:58:26;21.60;66.40
7970;DHT22;4030;52.362;9.206;2023-07-13T06:01:00;21.60;66.40
7970;DHT22;4030;52.362;9.206;2023-07-13T06:03:31;21.60;66.30
7970;DHT22;4030;52.362;9.206;2023-07-13T06:05:57;21.60;66.20
7970;DHT22;4030;52.362;9.206;2023-07-13T06:08:23;21.70;66.20
7970;DHT22;4030;52.362;9.206;2023-07-13T06:10:48;21.70;66.10
7970;DHT22;4030;52.362;9.206;2023-07-13T06:13:14;21.80;66.00
7970;DHT22;4030;52.362;9.206;2023-07-13T06:15:39;21.80;65.90
7970;DHT22;4030;52.362;9.206;2023-07-13T06:18:05;21.80;65.70
7970;DHT22;4030;52.362;9.206;2023-07-13T06:20:33;21.90;65.70
7970;DHT22;4030;52.362;9.206;2023-07-13T06:23:00;21.90;65.40
7970;DHT22;4030;52.362;9.206;2023-07-13T06:25:26;22.00;65.80
7970;DHT22;4030;52.362;9.206;2023-07-13T06:27:52;22.10;65.40
7970;DHT22;4030;52.362;9.206;2023-07-13T06:30:18;22.10;65.00
7970;DHT22;4030;52.362;9.206;2023-07-13T06:32:43;22.20;65.00
7970;DHT22;4030;52.362;9.206;2023-07-13T06:35:09;22.20;64.80
7970;DHT22;4030;52.362;9.206;2023-07-13T06:37:38;22.30;64.70
7970;DHT22;4030;52.362;9.206;2023-07-13T06:40:04;22.30;64.60
7970;DHT22;4030;52.362;9.206;2023-07-13T06:42:30;22.30;65.40
7970;DHT22;4030;52.362;9.206;2023-07-13T06:44:55;22.40;64.40
7970;DHT22;4030;52.362;9.206;2023-07-13T06:47:21;22.40;65.10
7970;DHT22;4030;52.362;9.206;2023-07-13T06:49:47;22.40;64.10
7970;DHT22;4030;52.362;9.206;2023-07-13T06:52:12;22.50;64.00
7970;DHT22;4030;52.362;9.206;2023-07-13T06:54:38;22.50;63.90
7970;DHT22;4030;52.362;9.206;2023-07-13T06:57:04;22.60;63.80
7970;DHT22;4030;52.362;9.206;2023-07-13T06:59:30;22.70;63.70
7970;DHT22;4030;52.362;9.206;2023-07-13T07:01:56;22.70;63.50
7970;DHT22;4030;52.362;9.206;2023-07-13T07:04:21;22.80;63.40
7970;DHT22;4030;52.362;9.206;2023-07-13T07:06:47;22.90;63.30
7970;DHT22;4030;52.362;9.206;2023-07-13T07:09:13;23.00;63.30
7970;DHT22;4030;52.362;9.206;2023-07-13T07:11:39;23.10;63.30
7970;DHT22;4030;52.362;9.206;2023-07-13T07:14:04;23.10;63.00
7970;DHT22;4030;52.362;9.206;2023-07-13T07:16:30;23.20;62.90
7970;DHT22;4030;52.362;9.206;2023-07-13T07:18:57;23.30;62.80
7970;DHT22;4030;52.362;9.206;2023-07-13T07:21:22;23.40;62.70
7970;DHT22;4030;52.362;9.206;2023-07-13T07:23:48;23.50;62.50
7970;DHT22;4030;52.362;9.206;2023-07-13T07:26:14;23.60;62.40
7970;DHT22;4030;52.362;9.206;2023-07-13T07:28:40;23.80;62.40
7970;DHT22;4030;52.362;9.206;2023-07-13T07:31:06;23.90;62.10
7970;DHT22;4030;52.362;9.206;2023-07-13T07:33:33;24.00;61.80
7970;DHT22;4030;52.362;9.206;2023-07-13T07:35:59;24.10;61.80
7970;DHT22;4030;52.362;9.206;2023-07-13T07:38:25;24.10;61.70
7970;DHT22;4030;52.362;9.206;2023-07-13T07:40:51;24.10;61.60
7970;DHT22;4030;52.362;9.206;2023-07-13T07:43:18;24.10;61.80
7970;DHT22;4030;52.362;9.206;2023-07-13T07:45:45;24.00;61.70
7970;DHT22;4030;52.362;9.206;2023-07-13T07:48:11;24.00;61.80
7970;DHT22;4030;52.362;9.206;2023-07-13T07:50:37;24.00;61.70
7970;DHT22;4030;52.362;9.206;2023-07-13T07:53:05;24.00;61.70
7970;DHT22;4030;52.362;9.206;2023-07-13T07:55:33;24.00;61.70
7970;DHT22;4030;52.362;9.206;2023-07-13T07:58:00;24.00;61.60
7970;DHT22;4030;52.362;9.206;2023-07-13T08:00:26;24.00;61.50
7970;DHT22;4030;52.362;9.206;2023-07-13T08:02:53;24.00;61.30
7970;DHT22;4030;52.362;9.206;2023-07-13T08:05:19;24.10;61.60
7970;DHT22;4030;52.362;9.206;2023-07-13T08:07:45;24.10;61.40
7970;DHT22;4030;52.362;9.206;2023-07-13T08:10:10;24.20;61.40
7970;DHT22;4030;52.362;9.206;2023-07-13T08:12:37;24.30;61.30
7970;DHT22;4030;52.362;9.206;2023-07-13T08:15:04;24.40;61.20
7970;DHT22;4030;52.362;9.206;2023-07-13T08:17:31;24.50;61.00
7970;DHT22;4030;52.362;9.206;2023-07-13T08:19:57;24.60;61.10
7970;DHT22;4030;52.362;9.206;2023-07-13T08:22:22;24.70;60.90
7970;DHT22;4030;52.362;9.206;2023-07-13T08:24:48;24.80;60.90
7970;DHT22;4030;52.362;9.206;2023-07-13T08:27:20;24.90;60.80
7970;DHT22;4030;52.362;9.206;2023-07-13T08:29:47;25.00;60.80
7970;DHT22;4030;52.362;9.206;2023-07-13T08:32:13;25.00;60.40
7970;DHT22;4030;52.362;9.206;2023-07-13T08:34:39;25.10;60.20
7970;DHT22;4030;52.362;9.206;2023-07-13T08:37:06;25.30;60.10
7970;DHT22;4030;52.362;9.206;2023-07-13T08:39:33;25.40;59.90
7970;DHT22;4030;52.362;9.206;2023-07-13T08:42:06;25.50;59.80
7970;DHT22;4030;52.362;9.206;2023-07-13T08:47:47;25.70;59.40
7970;DHT22;4030;52.362;9.206;2023-07-13T08:50:17;25.80;59.40
7970;DHT22;4030;52.362;9.206;2023-07-13T08:52:47;25.80;59.30
7970;DHT22;4030;52.362;9.206;2023-07-13T08:55:20;25.90;59.10
7970;DHT22;4030;52.362;9.206;2023-07-13T08:57:57;26.00;58.90
7970;DHT22;4030;52.362;9.206;2023-07-13T09:00:43;26.10;58.50
7970;DHT22;4030;52.362;9.206;2023-07-13T09:03:24;26.20;58.30
7970;DHT22;4030;52.362;9.206;2023-07-13T09:05:55;26.30;58.00
7970;DHT22;4030;52.362;9.206;2023-07-13T09:08:31;26.40;58.00
7970;DHT22;4030;52.362;9.206;2023-07-13T09:14:34;26.30;57.80
7970;DHT22;4030;52.362;9.206;2023-07-13T09:17:18;26.30;57.80
7970;DHT22;4030;52.362;9.206;2023-07-13T09:19:49;26.30;57.60
7970;DHT22;4030;52.362;9.206;2023-07-13T09:22:24;26.30;57.50
7970;DHT22;4030;52.362;9.206;2023-07-13T09:24:52;26.40;57.30
7970;DHT22;4030;52.362;9.206;2023-07-13T09:27:25;26.50;57.10
7970;DHT22;4030;52.362;9.206;2023-07-13T09:30:26;26.60;56.80
7970;DHT22;4030;52.362;9.206;2023-07-13T09:32:55;26.70;56.50
7970;DHT22;4030;52.362;9.206;2023-07-13T09:35:26;26.70;56.30
7970;DHT22;4030;52.362;9.206;2023-07-13T09:38:14;26.80;55.90
7970;DHT22;4030;52.362;9.206;2023-07-13T09:43:34;27.00;55.40
7970;DHT22;4030;52.362;9.206;2023-07-13T09:46:00;27.00;54.20
7970;DHT22;4030;52.362;9.206;2023-07-13T09:48:36;26.90;54.40
7970;DHT22;4030;52.362;9.206;2023-07-13T09:51:14;26.90;54.40
7970;DHT22;4030;52.362;9.206;2023-07-13T09:53:42;27.00;54.30
7970;DHT22;4030;52.362;9.206;2023-07-13T09:56:28;27.00;54.10
7970;DHT22;4030;52.362;9.206;2023-07-13T09:58:55;26.90;53.90
7970;DHT22;4030;52.362;9.206;2023-07-13T10:01:34;26.90;53.90
7970;DHT22;4030;52.362;9.206;2023-07-13T10:04:01;26.70;53.80
7970;DHT22;4030;52.362;9.206;2023-07-13T10:06:40;26.60;53.70
7970;DHT22;4030;52.362;9.206;2023-07-13T10:09:09;26.40;54.10
7970;DHT22;4030;52.362;9.206;2023-07-13T10:11:36;26.30;54.30
7970;DHT22;4030;52.362;9.206;2023-07-13T10:14:15;26.30;54.40
7970;DHT22;4030;52.362;9.206;2023-07-13T10:16:44;26.20;54.50
7970;DHT22;4030;52.362;9.206;2023-07-13T10:21:56;26.10;55.00
7970;DHT22;4030;52.362;9.206;2023-07-13T10:24:32;26.00;55.30
7970;DHT22;4030;52.362;9.206;2023-07-13T10:27:20;25.90;55.40
7970;DHT22;4030;52.362;9.206;2023-07-13T10:30:25;25.90;55.30
7970;DHT22;4030;52.362;9.206;2023-07-13T10:32:58;26.00;55.20
7970;DHT22;4030;52.362;9.206;2023-07-13T10:35:27;26.00;54.80
7970;DHT22;4030;52.362;9.206;2023-07-13T10:38:02;26.10;54.20
7970;DHT22;4030;52.362;9.206;2023-07-13T10:40:40;26.20;53.90
7970;DHT22;4030;52.362;9.206;2023-07-13T10:43:20;26.40;53.20
7970;DHT22;4030;52.362;9.206;2023-07-13T10:45:49;26.60;52.70
7970;DHT22;4030;52.362;9.206;2023-07-13T10:48:17;26.90;52.20
7970;DHT22;4030;52.362;9.206;2023-07-13T10:50:45;27.20;51.90
7970;DHT22;4030;52.362;9.206;2023-07-13T10:53:21;27.30;51.60
7970;DHT22;4030;52.362;9.206;2023-07-13T10:58:39;27.80;50.80
7970;DHT22;4030;52.362;9.206;2023-07-13T11:03:55;28.10;50.10
7970;DHT22;4030;52.362;9.206;2023-07-13T11:15:05;27.70;49.00
7970;DHT22;4030;52.362;9.206;2023-07-13T11:17:34;27.50;49.20
7970;DHT22;4030;52.362;9.206;2023-07-13T11:20:20;27.40;49.40
7970;DHT22;4030;52.362;9.206;2023-07-13T11:25:36;27.40;49.30
7970;DHT22;4030;52.362;9.206;2023-07-13T11:28:15;27.60;49.20
7970;DHT22;4030;52.362;9.206;2023-07-13T11:33:25;28.10;49.20
7970;DHT22;4030;52.362;9.206;2023-07-13T11:35:58;28.00;49.50
7970;DHT22;4030;52.362;9.206;2023-07-13T11:38:38;27.90;49.10
7970;DHT22;4030;52.362;9.206;2023-07-13T11:41:14;27.70;48.60
7970;DHT22;4030;52.362;9.206;2023-07-13T11:43:41;27.60;48.80
7970;DHT22;4030;52.362;9.206;2023-07-13T11:46:15;27.50;48.70
7970;DHT22;4030;52.362;9.206;2023-07-13T11:48:46;27.40;48.90
7970;DHT22;4030;52.362;9.206;2023-07-13T11:51:34;27.30;49.20
7970;DHT22;4030;52.362;9.206;2023-07-13T11:54:15;27.20;49.50
7970;DHT22;4030;52.362;9.206;2023-07-13T11:57:03;27.00;49.70
7970;DHT22;4030;52.362;9.206;2023-07-13T11:59:39;26.90;49.80
7970;DHT22;4030;52.362;9.206;2023-07-13T12:02:16;26.80;49.80
7970;DHT22;4030;52.362;9.206;2023-07-13T12:04:44;26.70;49.80
7970;DHT22;4030;52.362;9.206;2023-07-13T12:07:18;26.70;49.90
7970;DHT22;4030;52.362;9.206;2023-07-13T12:09:44;26.70;50.00
7970;DHT22;4030;52.362;9.206;2023-07-13T12:12:17;26.80;49.90
7970;DHT22;4030;52.362;9.206;2023-07-13T12:14:44;27.10;49.70
7970;DHT22;4030;52.362;9.206;2023-07-13T12:17:17;27.40;49.20
7970;DHT22;4030;52.362;9.206;2023-07-13T12:19:45;27.70;49.00
7970;DHT22;4030;52.362;9.206;2023-07-13T12:22:13;28.10;48.80
7970;DHT22;4030;52.362;9.206;2023-07-13T12:24:43;28.50;48.50
7970;DHT22;4030;52.362;9.206;2023-07-13T12:27:25;28.90;48.10
7970;DHT22;4030;52.362;9.206;2023-07-13T12:30:04;29.10;47.60
7970;DHT22;4030;52.362;9.206;2023-07-13T12:32:41;29.20;47.00
7970;DHT22;4030;52.362;9.206;2023-07-13T12:35:15;29.20;46.60
7970;DHT22;4030;52.362;9.206;2023-07-13T12:37:43;29.20;46.40
7970;DHT22;4030;52.362;9.206;2023-07-13T12:40:17;29.10;46.20
7970;DHT22;4030;52.362;9.206;2023-07-13T12:42:46;28.90;47.10
7970;DHT22;4030;52.362;9.206;2023-07-13T12:45:20;28.70;48.70
7970;DHT22;4030;52.362;9.206;2023-07-13T12:47:54;28.60;49.10
7970;DHT22;4030;52.362;9.206;2023-07-13T12:50:30;28.60;50.20
7970;DHT22;4030;52.362;9.206;2023-07-13T12:53:05;28.40;51.20
7970;DHT22;4030;52.362;9.206;2023-07-13T12:55:45;28.40;51.30
7970;DHT22;4030;52.362;9.206;2023-07-13T12:58:28;28.50;51.70
7970;DHT22;4030;52.362;9.206;2023-07-13T13:00:58;28.50;52.20
7970;DHT22;4030;52.362;9.206;2023-07-13T13:03:45;28.30;52.00
7970;DHT22;4030;52.362;9.206;2023-07-13T13:08:48;28.00;51.50
7970;DHT22;4030;52.362;9.206;2023-07-13T13:11:35;27.80;51.70
7970;DHT22;4030;52.362;9.206;2023-07-13T13:14:00;27.50;51.70
7970;DHT22;4030;52.362;9.206;2023-07-13T13:18:53;27.20;52.30
7970;DHT22;4030;52.362;9.206;2023-07-13T13:21:20;27.00;52.60
7970;DHT22;4030;52.362;9.206;2023-07-13T13:23:47;26.70;52.90
7970;DHT22;4030;52.362;9.206;2023-07-13T13:26:15;26.70;53.30
7970;DHT22;4030;52.362;9.206;2023-07-13T13:28:42;26.50;53.70
7970;DHT22;4030;52.362;9.206;2023-07-13T13:31:10;26.40;54.00
7970;DHT22;4030;52.362;9.206;2023-07-13T13:33:41;26.30;54.50
7970;DHT22;4030;52.362;9.206;2023-07-13T13:36:17;26.20;54.70
7970;DHT22;4030;52.362;9.206;2023-07-13T13:38:45;26.10;54.80
7970;DHT22;4030;52.362;9.206;2023-07-13T13:41:12;26.20;54.90
7970;DHT22;4030;52.362;9.206;2023-07-13T13:43:40;26.40;54.80
7970;DHT22;4030;52.362;9.206;2023-07-13T13:46:22;26.50;55.00
7970;DHT22;4030;52.362;9.206;2023-07-13T13:48:50;26.50;55.00
7970;DHT22;4030;52.362;9.206;2023-07-13T13:51:19;26.30;55.70
7970;DHT22;4030;52.362;9.206;2023-07-13T13:53:47;26.20;55.20
7970;DHT22;4030;52.362;9.206;2023-07-13T13:56:14;26.00;55.40
7970;DHT22;4030;52.362;9.206;2023-07-13T13:58:41;25.80;55.70
7970;DHT22;4030;52.362;9.206;2023-07-13T14:01:16;25.70;56.40
7970;DHT22;4030;52.362;9.206;2023-07-13T14:03:46;25.50;58.00
7970;DHT22;4030;52.362;9.206;2023-07-13T14:06:15;25.40;59.50
7970;DHT22;4030;52.362;9.206;2023-07-13T14:08:42;25.20;60.30
7970;DHT22;4030;52.362;9.206;2023-07-13T14:11:19;25.10;61.40
7970;DHT22;4030;52.362;9.206;2023-07-13T14:13:48;24.90;62.50
7970;DHT22;4030;52.362;9.206;2023-07-13T14:16:18;24.90;63.40
7970;DHT22;4030;52.362;9.206;2023-07-13T14:18:47;24.60;64.10
7970;DHT22;4030;52.362;9.206;2023-07-13T14:21:15;24.50;64.30
7970;DHT22;4030;52.362;9.206;2023-07-13T14:23:44;24.30;64.60
7970;DHT22;4030;52.362;9.206;2023-07-13T14:26:17;24.20;65.20
7970;DHT22;4030;52.362;9.206;2023-07-13T14:28:56;24.00;65.70
7970;DHT22;4030;52.362;9.206;2023-07-13T14:31:24;23.90;65.80
7970;DHT22;4030;52.362;9.206;2023-07-13T14:33:51;23.70;66.10
7970;DHT22;4030;52.362;9.206;2023-07-13T14:36:27;23.60;66.30
7970;DHT22;4030;52.362;9.206;2023-07-13T14:38:59;23.50;66.80
7970;DHT22;4030;52.362;9.206;2023-07-13T14:41:26;23.40;67.10
7970;DHT22;4030;52.362;9.206;2023-07-13T14:43:53;23.30;67.60
7970;DHT22;4030;52.362;9.206;2023-07-13T14:46:31;23.30;67.80
7970;DHT22;4030;52.362;9.206;2023-07-13T14:49:03;23.20;67.80
7970;DHT22;4030;52.362;9.206;2023-07-13T14:51:31;23.10;68.20
7970;DHT22;4030;52.362;9.206;2023-07-13T14:54:01;23.10;68.70
7970;DHT22;4030;52.362;9.206;2023-07-13T14:56:28;23.00;68.40
7970;DHT22;4030;52.362;9.206;2023-07-13T14:58:53;23.00;69.10
7970;DHT22;4030;52.362;9.206;2023-07-13T15:01:20;22.90;68.90
7970;DHT22;4030;52.362;9.206;2023-07-13T15:03:49;22.90;69.30
7970;DHT22;4030;52.362;9.206;2023-07-13T15:06:16;23.00;69.20
7970;DHT22;4030;52.362;9.206;2023-07-13T15:08:42;23.00;69.50
7970;DHT22;4030;52.362;9.206;2023-07-13T15:11:08;23.00;69.60
7970;DHT22;4030;52.362;9.206;2023-07-13T15:13:38;23.10;69.50
7970;DHT22;4030;52.362;9.206;2023-07-13T15:16:16;23.10;69.60
7970;DHT22;4030;52.362;9.206;2023-07-13T15:18:45;23.10;69.00
7970;DHT22;4030;52.362;9.206;2023-07-13T15:21:20;23.10;69.60
7970;DHT22;4030;52.362;9.206;2023-07-13T15:23:47;23.00;69.90
7970;DHT22;4030;52.362;9.206;2023-07-13T15:26:14;23.00;70.00
7970;DHT22;4030;52.362;9.206;2023-07-13T15:28:42;22.90;70.10
7970;DHT22;4030;52.362;9.206;2023-07-13T15:31:22;23.00;70.10
7970;DHT22;4030;52.362;9.206;2023-07-13T15:33:51;23.00;70.00
7970;DHT22;4030;52.362;9.206;2023-07-13T15:36:19;23.00;70.00
7970;DHT22;4030;52.362;9.206;2023-07-13T15:38:46;22.90;70.30
7970;DHT22;4030;52.362;9.206;2023-07-13T15:41:21;22.90;70.50
7970;DHT22;4030;52.362;9.206;2023-07-13T15:43:52;22.90;70.50
7970;DHT22;4030;52.362;9.206;2023-07-13T15:46:20;22.80;70.50
7970;DHT22;4030;52.362;9.206;2023-07-13T15:48:48;22.70;70.70
7970;DHT22;4030;52.362;9.206;2023-07-13T15:51:24;22.80;71.00
7970;DHT22;4030;52.362;9.206;2023-07-13T15:53:56;22.80;71.10
7970;DHT22;4030;52.362;9.206;2023-07-13T15:56:28;22.70;71.20
7970;DHT22;4030;52.362;9.206;2023-07-13T15:58:55;22.70;71.40
7970;DHT22;4030;52.362;9.206;2023-07-13T16:01:23;22.60;71.40
7970;DHT22;4030;52.362;9.206;2023-07-13T16:03:49;22.50;71.40
7970;DHT22;4030;52.362;9.206;2023-07-13T16:06:23;22.50;71.60
7970;DHT22;4030;52.362;9.206;2023-07-13T16:08:51;22.50;71.90
7970;DHT22;4030;52.362;9.206;2023-07-13T16:11:23;22.40;72.20
7970;DHT22;4030;52.362;9.206;2023-07-13T16:13:51;22.40;72.20
7970;DHT22;4030;52.362;9.206;2023-07-13T16:16:21;22.50;71.90
7970;DHT22;4030;52.362;9.206;2023-07-13T16:18:54;22.50;71.60
7970;DHT22;4030;52.362;9.206;2023-07-13T16:21:23;22.50;71.20
7970;DHT22;4030;52.362;9.206;2023-07-13T16:23:51;22.60;71.20
7970;DHT22;4030;52.362;9.206;2023-07-13T16:26:25;22.60;70.80
7970;DHT22;4030;52.362;9.206;2023-07-13T16:29:16;22.70;70.80
7970;DHT22;4030;52.362;9.206;2023-07-13T16:32:27;22.70;70.50
7970;DHT22;4030;52.362;9.206;2023-07-13T16:34:34;22.70;70.30
7970;DHT22;4030;52.362;9.206;2023-07-13T16:37:22;22.80;70.30
7970;DHT22;4030;52.362;9.206;2023-07-13T16:39:54;22.80;70.20
7970;DHT22;4030;52.362;9.206;2023-07-13T16:42:24;22.80;70.10
7970;DHT22;4030;52.362;9.206;2023-07-13T16:44:50;22.80;70.10
7970;DHT22;4030;52.362;9.206;2023-07-13T16:47:17;22.80;70.00
7970;DHT22;4030;52.362;9.206;2023-07-13T16:49:44;22.80;69.90
7970;DHT22;4030;52.362;9.206;2023-07-13T16:52:13;22.80;70.00